Time;durP1;ratioP1;P1;durP2;ratioP2;P2;SDS_P1;SDS_P2;PMS_P1;PMS_P2;Temp;Humidity;BMP_temperature;BMP_pressure;BME280_temperature;BME280_humidity;BME280_pressure;Samples;Min_cycle;Max_cycle;Signal;HPM_P1;HPM_P2
2023/01/05 00:01:41;;;;;;;1.90;1.38;;;;;;;-145.63;100.00;61273.97;4781338;30;20023;-66
2023/01/05 00:04:07;;;;;;;2.03;1.50;;;;;;;-145.63;100.00;61273.97;4782238;30;20038;-67
2023/01/05 00:06:33;;;;;;;2.33;1.50;;;;;;;-145.63;100.00;61273.97;4782020;30;20039;-67
2023/01/05 00:08:58;;;;;;;1.90;1.70;;;;;;;-145.63;100.00;61273.97;4782486;30;20043;-67
2023/01/05 00:22:39;;;;;;;2.67;2.15;;;;;;;-145.63;100.00;61273.97;4781116;30;20028;-68
2023/01/05 00:25:11;;;;;;;2.60;2.40;;;;;;;-145.63;100.00;61273.97;4782640;30;20035;-66
2023/01/05 00:27:37;;;;;;;3.20;2.40;;;;;;;-145.63;100.00;61273.97;4779299;30;20077;-67
2023/01/05 00:30:04;;;;;;;3.35;2.50;;;;;;;-145.63;100.00;61273.97;4778711;30;20039;-67
2023/01/05 00:32:31;;;;;;;4.93;2.40;;;;;;;-145.63;100.00;61273.97;4780759;30;20062;-66
2023/01/05 00:34:57;;;;;;;2.40;2.20;;;;;;;-145.63;100.00;61273.97;4781959;30;20216;-67
2023/01/05 00:37:25;;;;;;;3.70;2.78;;;;;;;-145.63;100.00;61273.97;4778590;30;20032;-64
2023/01/05 00:39:51;;;;;;;3.70;2.60;;;;;;;-145.63;100.00;61273.97;4780966;30;20028;-66
2023/01/05 00:42:17;;;;;;;3.25;2.67;;;;;;;-145.63;100.00;61273.97;4780881;30;20331;-66
2023/01/05 00:44:42;;;;;;;3.33;2.50;;;;;;;-145.63;100.00;61273.97;4779599;30;20201;-68
2023/01/05 00:47:08;;;;;;;3.25;2.58;;;;;;;-145.63;100.00;61273.97;4780707;30;20048;-67
2023/01/05 00:49:34;;;;;;;2.95;2.65;;;;;;;-145.63;100.00;61273.97;4780963;30;20048;-66
2023/01/05 00:52:00;;;;;;;3.08;2.80;;;;;;;-145.63;100.00;61273.97;4780627;30;20098;-65
2023/01/05 00:54:25;;;;;;;4.53;2.97;;;;;;;-145.63;100.00;61273.97;4785429;30;20055;-67
2023/01/05 00:56:51;;;;;;;3.63;2.70;;;;;;;-145.63;100.00;61273.97;4786162;30;20059;-67
2023/01/05 00:59:17;;;;;;;3.42;3.13;;;;;;;-145.63;100.00;61273.97;4781587;30;20316;-65
2023/01/05 01:01:47;;;;;;;3.33;2.97;;;;;;;-145.63;100.00;61273.97;4781375;30;20113;-65
2023/01/05 01:04:13;;;;;;;3.72;3.00;;;;;;;-145.63;100.00;61273.97;4780189;30;20040;-66
2023/01/05 01:06:38;;;;;;;3.90;3.03;;;;;;;-145.63;100.00;61273.97;4794787;30;20042;-66
2023/01/05 01:09:04;;;;;;;4.25;3.50;;;;;;;-145.63;100.00;61273.97;4781213;30;20031;-66
2023/01/05 01:11:30;;;;;;;4.50;3.28;;;;;;;-145.63;100.00;61273.97;4794937;30;20208;-66
2023/01/05 01:13:55;;;;;;;4.03;3.15;;;;;;;-145.63;100.00;61273.97;4774231;30;20114;-64
2023/01/05 01:16:22;;;;;;;3.47;3.13;;;;;;;-145.63;100.00;61273.97;4780320;30;20031;-64
2023/01/05 01:18:48;;;;;;;3.88;3.25;;;;;;;-145.63;100.00;61273.97;4781107;30;20099;-65
2023/01/05 01:21:14;;;;;;;4.15;3.53;;;;;;;-145.63;100.00;61273.97;4781275;30;20028;-65
2023/01/05 01:23:40;;;;;;;4.72;3.58;;;;;;;-145.63;100.00;61273.97;4786103;29;20040;-66
2023/01/05 01:26:08;;;;;;;3.50;2.90;;;;;;;-145.63;100.00;61273.97;4781016;30;20220;-64
2023/01/05 01:28:34;;;;;;;4.07;3.42;;;;;;;-145.63;100.00;61273.97;4781123;30;20039;-65
2023/01/05 01:31:00;;;;;;;4.40;3.47;;;;;;;-145.63;100.00;61273.97;4781226;30;20039;-65
2023/01/05 01:33:27;;;;;;;4.25;3.45;;;;;;;-145.63;100.00;61273.97;4781057;30;20032;-65
2023/01/05 01:35:53;;;;;;;3.22;2.92;;;;;;;-145.63;100.00;61273.97;4781091;30;20032;-65
2023/01/05 01:38:19;;;;;;;4.10;3.03;;;;;;;-145.63;100.00;61273.97;4780917;30;20076;-65
2023/01/05 01:40:46;;;;;;;3.10;2.80;;;;;;;-145.63;100.00;61273.97;4780771;30;20035;-65
2023/01/05 01:43:46;;;;;;;3.65;3.10;;;;;;;-145.63;100.00;61273.97;4781004;30;20064;-65
2023/01/05 01:46:13;;;;;;;4.07;2.75;;;;;;;-145.63;100.00;61273.97;4758756;30;20051;-64
2023/01/05 01:48:45;;;;;;;4.25;2.60;;;;;;;-145.63;100.00;61273.97;4777528;30;20048;-65
2023/01/05 01:51:29;;;;;;;3.35;2.85;;;;;;;-145.63;100.00;61273.97;4780798;30;20046;-65
2023/01/05 01:53:58;;;;;;;3.38;2.60;;;;;;;-145.63;100.00;61273.97;4790328;30;20042;-65
2023/01/05 01:56:28;;;;;;;3.25;2.50;;;;;;;-145.63;100.00;61273.97;4792644;29;20035;-66
2023/01/05 01:58:54;;;;;;;2.80;2.38;;;;;;;-145.63;100.00;61273.97;4780572;30;20055;-65
2023/01/05 02:01:20;;;;;;;2.45;2.25;;;;;;;-145.63;100.00;61273.97;4779864;30;20320;-66
2023/01/05 02:03:46;;;;;;;3.90;2.58;;;;;;;-145.63;100.00;61273.97;4794319;30;20027;-66
2023/01/05 02:06:12;;;;;;;4.22;2.80;;;;;;;-145.63;100.00;61273.97;4780397;30;20032;-65
2023/01/05 02:08:38;;;;;;;3.30;2.80;;;;;;;-145.63;100.00;61273.97;4780293;30;20028;-65
2023/01/05 02:11:09;;;;;;;3.47;2.60;;;;;;;-145.63;100.00;61273.97;4780488;30;20031;-64
2023/01/05 02:13:56;;;;;;;3.20;2.80;;;;;;;-145.63;100.00;61273.97;4780320;30;20092;-65
2023/01/05 02:17:12;;;;;;;3.85;2.60;;;;;;;-145.63;100.00;61273.97;4762866;30;20372;-66
2023/01/05 02:19:56;;;;;;;3.05;2.50;;;;;;;-145.63;100.00;61273.97;4742999;30;20081;-66
2023/01/05 02:22:24;;;;;;;2.75;2.40;;;;;;;-145.63;100.00;61273.97;4771870;30;20044;-67
2023/01/05 02:24:53;;;;;;;2.80;2.50;;;;;;;-145.63;100.00;61273.97;4780207;30;20044;-64
2023/01/05 02:27:47;;;;;;;2.85;2.35;;;;;;;-145.63;100.00;61273.97;4780361;30;20044;-65
2023/01/05 02:30:58;;;;;;;3.85;2.63;;;;;;;-145.63;100.00;61273.97;4778980;30;20043;-64
2023/01/05 02:33:42;;;;;;;2.72;2.35;;;;;;;-145.63;100.00;61273.97;4785882;30;20040;-66
2023/01/05 02:36:27;;;;;;;5.13;2.60;;;;;;;-145.63;100.00;61273.97;4773860;30;20096;-65
2023/01/05 02:39:28;;;;;;;3.47;2.40;;;;;;;-145.63;100.00;61273.97;4779163;30;20313;-66
2023/01/05 02:42:04;;;;;;;2.78;2.10;;;;;;;-145.63;100.00;61273.97;4766143;30;20047;-65
2023/01/05 02:44:32;;;;;;;3.10;2.33;;;;;;;-145.63;100.00;61273.97;4779822;30;20090;-65
2023/01/05 02:47:00;;;;;;;3.38;2.30;;;;;;;-145.63;100.00;61273.97;4780032;30;20036;-65
2023/01/05 02:49:27;;;;;;;4.25;2.20;;;;;;;-145.63;100.00;61273.97;4779609;30;20048;-65
2023/01/05 02:51:55;;;;;;;3.83;2.35;;;;;;;-145.63;100.00;61273.97;4779728;30;20067;-64
2023/01/05 02:54:34;;;;;;;2.53;2.17;;;;;;;-145.63;100.00;61273.97;4793011;30;20041;-64
2023/01/05 02:57:10;;;;;;;2.42;1.90;;;;;;;-145.63;100.00;61273.97;4788195;29;20103;-66
2023/01/05 02:59:44;;;;;;;2.75;2.13;;;;;;;-145.63;100.00;61273.97;4779794;30;20097;-65
2023/01/05 03:02:15;;;;;;;3.05;1.98;;;;;;;-145.63;100.00;61273.97;4779669;30;20036;-65
2023/01/05 03:04:50;;;;;;;3.60;2.10;;;;;;;-145.63;100.00;61273.97;4779723;30;20069;-66
2023/01/05 03:07:20;;;;;;;3.58;2.22;;;;;;;-145.63;100.00;61273.97;4767671;30;20052;-65
2023/01/05 03:09:47;;;;;;;3.45;2.17;;;;;;;-145.63;100.00;61273.97;4779779;30;20316;-65
2023/01/05 03:15:26;;;;;;;2.30;2.10;;;;;;;-145.63;100.00;61273.97;4779715;30;20035;-64
2023/01/05 03:17:56;;;;;;;2.95;2.25;;;;;;;-145.63;100.00;61273.97;4780134;30;20062;-64
2023/01/05 03:20:26;;;;;;;3.78;2.17;;;;;;;-145.63;100.00;61273.97;4780031;30;20038;-64
2023/01/05 03:37:46;;;;;;;3.05;2.45;;;;;;;-145.63;100.00;61273.97;4761656;30;20101;-65
2023/01/05 03:40:17;;;;;;;4.97;2.70;;;;;;;-145.63;100.00;61273.97;4761787;30;20059;-65
2023/01/05 03:42:43;;;;;;;2.85;2.55;;;;;;;-145.63;100.00;61273.97;4775884;30;20351;-65
2023/01/05 03:45:11;;;;;;;2.63;2.42;;;;;;;-145.63;100.00;61273.97;4780336;30;20142;-65
2023/01/05 03:47:37;;;;;;;2.45;2.25;;;;;;;-145.63;100.00;61273.97;4782096;30;20036;-65
2023/01/05 03:50:02;;;;;;;2.38;2.17;;;;;;;-145.63;100.00;61273.97;4782940;30;20051;-65
2023/01/05 03:52:28;;;;;;;2.58;2.38;;;;;;;-145.63;100.00;61273.97;4782819;30;20070;-64
2023/01/05 03:54:55;;;;;;;3.38;2.35;;;;;;;-145.63;100.00;61273.97;4813600;29;20055;-65
2023/01/05 03:57:21;;;;;;;2.50;2.30;;;;;;;-145.63;100.00;61273.97;4788886;29;20046;-64
2023/01/05 03:59:46;;;;;;;3.13;2.25;;;;;;;-145.63;100.00;61273.97;4781372;30;20220;-64
2023/01/05 04:02:12;;;;;;;3.47;2.38;;;;;;;-145.63;100.00;61273.97;4782497;30;20105;-64
2023/01/05 04:04:40;;;;;;;2.58;2.28;;;;;;;-145.63;100.00;61273.97;4782468;30;20036;-65
2023/01/05 04:07:06;;;;;;;2.47;2.15;;;;;;;-145.63;100.00;61273.97;4782597;30;20077;-64
2023/01/05 04:09:32;;;;;;;2.92;2.10;;;;;;;-145.63;100.00;61273.97;4782446;30;20035;-64
2023/01/05 04:11:59;;;;;;;3.00;2.40;;;;;;;-145.63;100.00;61273.97;4782540;30;20066;-64
2023/01/05 04:14:24;;;;;;;2.60;2.10;;;;;;;-145.63;100.00;61273.97;4781103;30;20031;-64
2023/01/05 04:16:50;;;;;;;3.85;2.53;;;;;;;-145.63;100.00;61273.97;4781983;30;20075;-64
2023/01/05 04:19:16;;;;;;;2.72;2.40;;;;;;;-145.63;100.00;61273.97;4782501;30;20044;-64
2023/01/05 04:21:41;;;;;;;2.72;2.40;;;;;;;-145.63;100.00;61273.97;4782188;30;20040;-64
2023/01/05 04:24:09;;;;;;;2.85;2.58;;;;;;;-145.63;100.00;61273.97;4789951;30;20042;-64
2023/01/05 04:26:36;;;;;;;4.70;2.40;;;;;;;-145.63;100.00;61273.97;4782091;30;20034;-65
2023/01/05 04:29:03;;;;;;;2.60;2.38;;;;;;;-145.63;100.00;61273.97;4782195;30;20035;-65
2023/01/05 04:31:28;;;;;;;3.25;2.88;;;;;;;-145.63;100.00;61273.97;4781005;30;20099;-65
2023/01/05 04:33:54;;;;;;;4.78;3.05;;;;;;;-145.63;100.00;61273.97;4782064;30;20027;-64
2023/01/05 04:36:20;;;;;;;3.53;3.15;;;;;;;-145.63;100.00;61273.97;4782071;30;20043;-65
2023/01/05 04:38:46;;;;;;;3.38;2.60;;;;;;;-145.63;100.00;61273.97;4788573;30;20051;-65
2023/01/05 04:41:11;;;;;;;3.83;2.88;;;;;;;-145.63;100.00;61273.97;4782325;30;20084;-65
2023/01/05 04:43:37;;;;;;;3.35;2.90;;;;;;;-145.63;100.00;61273.97;4781947;30;20032;-65
2023/01/05 04:46:02;;;;;;;3.67;2.70;;;;;;;-145.63;100.00;61273.97;4781807;30;20059;-65
2023/01/05 04:48:30;;;;;;;3.92;2.33;;;;;;;-145.63;100.00;61273.97;4781595;30;20062;-64
2023/01/05 04:50:56;;;;;;;3.08;2.78;;;;;;;-145.63;100.00;61273.97;4781771;30;20063;-63
2023/01/05 04:53:22;;;;;;;3.95;3.00;;;;;;;-145.63;100.00;61273.97;4787412;30;20030;-63
2023/01/05 04:55:48;;;;;;;7.15;3.25;;;;;;;-145.63;100.00;61273.97;4798275;30;20346;-64
2023/01/05 04:58:13;;;;;;;6.22;4.32;;;;;;;-145.63;100.00;61273.97;4779690;30;20028;-64
2023/01/05 05:00:39;;;;;;;4.55;3.30;;;;;;;-145.63;100.00;61273.97;4781104;30;20023;-65
2023/01/05 05:03:05;;;;;;;3.67;2.60;;;;;;;-145.63;100.00;61273.97;4780317;30;20070;-64
2023/01/05 05:05:30;;;;;;;3.58;2.55;;;;;;;-145.63;100.00;61273.97;4781257;30;20035;-64
2023/01/05 05:07:56;;;;;;;3.22;2.60;;;;;;;-145.63;100.00;61273.97;4781392;30;20031;-65
2023/01/05 05:10:21;;;;;;;3.10;2.70;;;;;;;-145.63;100.00;61273.97;4781355;30;20054;-65
2023/01/05 05:12:47;;;;;;;2.70;2.33;;;;;;;-145.63;100.00;61273.97;4781025;30;20055;-65
2023/01/05 05:15:13;;;;;;;3.38;2.22;;;;;;;-145.63;100.00;61273.97;4780476;30;20106;-64
2023/01/05 05:17:38;;;;;;;3.22;2.60;;;;;;;-145.63;100.00;61273.97;4780830;30;20372;-65
2023/01/05 05:20:05;;;;;;;4.10;2.80;;;;;;;-145.63;100.00;61273.97;4780897;30;20054;-65
2023/01/05 05:22:30;;;;;;;3.75;2.80;;;;;;;-145.63;100.00;61273.97;4786687;30;20027;-65
2023/01/05 05:24:56;;;;;;;3.78;2.95;;;;;;;-145.63;100.00;61273.97;4783480;29;20024;-64
2023/01/05 05:27:22;;;;;;;3.00;2.70;;;;;;;-145.63;100.00;61273.97;4780843;30;20216;-64
2023/01/05 05:29:47;;;;;;;4.25;3.22;;;;;;;-145.63;100.00;61273.97;4780763;30;20031;-66
2023/01/05 05:32:13;;;;;;;4.65;3.30;;;;;;;-145.63;100.00;61273.97;4780983;30;20031;-65
2023/01/05 05:34:38;;;;;;;6.85;3.30;;;;;;;-145.63;100.00;61273.97;4779868;30;20035;-65
2023/01/05 05:37:04;;;;;;;5.03;3.03;;;;;;;-145.63;100.00;61273.97;4780754;30;20317;-65
2023/01/05 05:39:30;;;;;;;3.90;3.50;;;;;;;-145.63;100.00;61273.97;4793947;30;20385;-65
2023/01/05 05:41:55;;;;;;;5.20;3.03;;;;;;;-145.63;100.00;61273.97;4792377;29;20103;-66
2023/01/05 05:44:22;;;;;;;4.40;3.45;;;;;;;-145.63;100.00;61273.97;4780557;30;20039;-66
2023/01/05 05:46:48;;;;;;;3.67;2.83;;;;;;;-145.63;100.00;61273.97;4780345;30;20044;-66
2023/01/05 05:49:13;;;;;;;3.88;3.30;;;;;;;-145.63;100.00;61273.97;4779213;30;20069;-67
2023/01/05 05:51:39;;;;;;;4.68;3.50;;;;;;;-145.63;100.00;61273.97;4780297;30;20040;-66
2023/01/05 05:54:04;;;;;;;3.70;2.97;;;;;;;-145.63;100.00;61273.97;4791310;30;20042;-67
2023/01/05 05:56:30;;;;;;;4.82;3.67;;;;;;;-145.63;100.00;61273.97;4797381;29;20035;-66
2023/01/05 05:59:16;;;;;;;4.47;3.55;;;;;;;-145.63;100.00;61273.97;4780291;30;20320;-67
2023/01/05 06:01:41;;;;;;;3.67;3.10;;;;;;;-145.63;100.00;61273.97;4780395;30;20050;-65
2023/01/05 06:04:07;;;;;;;4.20;3.47;;;;;;;-145.63;100.00;61273.97;4780199;30;20283;-66
2023/01/05 06:06:33;;;;;;;4.15;3.20;;;;;;;-145.63;100.00;61273.97;4779807;30;20331;-65
2023/01/05 06:08:58;;;;;;;5.00;3.50;;;;;;;-145.63;100.00;61273.97;4780245;30;20032;-66
2023/01/05 06:11:24;;;;;;;5.00;3.40;;;;;;;-145.63;100.00;61273.97;4779991;30;20100;-65
2023/01/05 06:13:49;;;;;;;6.72;4.32;;;;;;;-145.63;100.00;61273.97;4779819;30;20043;-65
2023/01/05 06:16:15;;;;;;;4.95;4.00;;;;;;;-145.63;100.00;61273.97;4793889;30;20319;-63
2023/01/05 06:18:41;;;;;;;4.20;3.60;;;;;;;-145.63;100.00;61273.97;4780134;30;20079;-65
2023/01/05 06:21:07;;;;;;;5.22;3.83;;;;;;;-145.63;100.00;61273.97;4780330;30;20090;-65
2023/01/05 06:23:33;;;;;;;4.13;3.70;;;;;;;-145.63;100.00;61273.97;4789019;30;20032;-66
2023/01/05 06:25:59;;;;;;;7.07;3.97;;;;;;;-145.63;100.00;61273.97;4780077;30;20201;-66
2023/01/05 06:28:24;;;;;;;4.15;3.58;;;;;;;-145.63;100.00;61273.97;4780725;30;20051;-66
2023/01/05 06:30:50;;;;;;;4.25;3.55;;;;;;;-145.63;100.00;61273.97;4779892;30;20032;-65
2023/01/05 06:33:15;;;;;;;4.45;3.38;;;;;;;-145.63;100.00;61273.97;4780440;30;20338;-65
2023/01/05 06:35:41;;;;;;;4.15;3.28;;;;;;;-145.63;100.00;61273.97;4777116;30;20229;-65
2023/01/05 06:38:07;;;;;;;4.88;3.95;;;;;;;-145.63;100.00;61273.97;4793686;30;20069;-66
2023/01/05 06:40:32;;;;;;;4.97;3.30;;;;;;;-145.63;100.00;61273.97;4779456;30;20032;-65
2023/01/05 06:42:58;;;;;;;6.45;3.47;;;;;;;-145.63;100.00;61273.97;4779134;30;20110;-64
2023/01/05 06:45:23;;;;;;;4.88;3.75;;;;;;;-145.63;100.00;61273.97;4780150;30;20058;-64
2023/01/05 06:47:49;;;;;;;4.32;3.55;;;;;;;-145.63;100.00;61273.97;4779878;30;20316;-64
2023/01/05 06:50:14;;;;;;;4.43;3.70;;;;;;;-145.63;100.00;61273.97;4780414;30;20074;-65
2023/01/05 06:52:40;;;;;;;7.70;3.60;;;;;;;-145.63;100.00;61273.97;4779214;30;20070;-65
2023/01/05 06:55:10;;;;;;;6.32;4.60;;;;;;;-145.63;100.00;61273.97;4779506;29;20067;-65
2023/01/05 06:57:36;;;;;;;7.82;4.15;;;;;;;-145.63;100.00;61273.97;4779701;30;20060;-65
2023/01/05 07:00:10;;;;;;;6.30;3.88;;;;;;;-145.63;100.00;61273.97;4779787;30;20043;-65
2023/01/05 07:02:36;;;;;;;4.65;3.97;;;;;;;-145.63;100.00;61273.97;4779560;30;20097;-65
2023/01/05 07:05:02;;;;;;;5.00;3.90;;;;;;;-145.63;100.00;61273.97;4779972;30;20270;-64
2023/01/05 07:07:29;;;;;;;8.75;3.80;;;;;;;-145.63;100.00;61273.97;4777706;30;20028;-65
2023/01/05 07:09:55;;;;;;;6.72;3.92;;;;;;;-145.63;100.00;61273.97;4778728;30;20103;-65
2023/01/05 07:12:21;;;;;;;3.88;3.33;;;;;;;-145.63;100.00;61273.97;4778685;30;20320;-64
2023/01/05 07:14:47;;;;;;;3.65;3.30;;;;;;;-145.63;100.00;61273.97;4793371;30;20082;-65
2023/01/05 07:17:12;;;;;;;5.60;3.70;;;;;;;-145.63;100.00;61273.97;4778886;30;20036;-65
2023/01/05 07:19:38;;;;;;;5.47;3.97;;;;;;;-145.63;100.00;61273.97;4779376;30;20048;-64
2023/01/05 07:22:04;;;;;;;6.10;4.43;;;;;;;-145.63;100.00;61273.97;4783501;30;20023;-65
2023/01/05 07:24:30;;;;;;;4.53;3.88;;;;;;;-145.63;100.00;61273.97;4789671;29;20046;-65
2023/01/05 07:26:58;;;;;;;5.63;4.00;;;;;;;-145.63;100.00;61273.97;4779772;30;20041;-66
2023/01/05 07:29:23;;;;;;;4.55;3.65;;;;;;;-145.63;100.00;61273.97;4776095;30;20107;-65
2023/01/05 07:31:51;;;;;;;5.10;3.95;;;;;;;-145.63;100.00;61273.97;4783129;30;20031;-66
2023/01/05 07:34:20;;;;;;;5.43;3.95;;;;;;;-145.63;100.00;61273.97;4782821;30;20145;-65
2023/01/05 07:36:46;;;;;;;5.75;4.43;;;;;;;-145.63;100.00;61273.97;4782869;30;20058;-65
2023/01/05 07:39:12;;;;;;;6.68;4.28;;;;;;;-145.63;100.00;61273.97;4785173;30;20078;-66
2023/01/05 07:41:38;;;;;;;5.70;4.00;;;;;;;-145.63;100.00;61273.97;4796498;30;20269;-64
2023/01/05 07:44:03;;;;;;;6.28;4.40;;;;;;;-145.63;100.00;61273.97;4782656;30;20073;-65
2023/01/05 07:46:29;;;;;;;5.55;4.75;;;;;;;-145.63;100.00;61273.97;4795989;30;20081;-64
2023/01/05 07:48:55;;;;;;;5.30;3.75;;;;;;;-145.63;100.00;61273.97;4782753;30;20343;-64
2023/01/05 07:51:21;;;;;;;5.22;4.10;;;;;;;-145.63;100.00;61273.97;4782848;30;20089;-64
2023/01/05 07:53:47;;;;;;;8.63;4.60;;;;;;;-145.63;100.00;61273.97;4791052;30;20111;-65
2023/01/05 07:56:13;;;;;;;4.65;4.07;;;;;;;-145.63;100.00;61273.97;4798496;29;20042;-66
2023/01/05 07:58:39;;;;;;;5.25;3.70;;;;;;;-145.63;100.00;61273.97;4764502;30;20042;-65
2023/01/05 08:01:11;;;;;;;5.60;4.57;;;;;;;-145.63;100.00;61273.97;4780061;30;20031;-66
2023/01/05 08:03:37;;;;;;;4.50;3.78;;;;;;;-145.63;100.00;61273.97;4781575;30;20090;-65
2023/01/05 08:06:07;;;;;;;6.38;4.32;;;;;;;-145.63;100.00;61273.97;4781863;30;20039;-66
2023/01/05 08:08:33;;;;;;;5.32;3.72;;;;;;;-145.63;100.00;61273.97;4781435;30;20043;-65
2023/01/05 08:10:59;;;;;;;7.68;4.00;;;;;;;-145.63;100.00;61273.97;4787839;30;20036;-66
2023/01/05 08:16:08;;;;;;;6.88;4.22;;;;;;;-145.63;100.00;61273.97;4789856;30;20081;-66
2023/01/05 08:18:34;;;;;;;4.90;3.53;;;;;;;-145.63;100.00;61273.97;4784251;29;20036;-65
2023/01/05 08:21:04;;;;;;;5.38;4.05;;;;;;;-145.63;100.00;61273.97;4782161;30;20067;-66
2023/01/05 08:23:32;;;;;;;6.25;3.70;;;;;;;-145.63;100.00;61273.97;4791374;30;20129;-66
2023/01/05 08:26:03;;;;;;;5.00;3.70;;;;;;;-145.63;100.00;61273.97;4780918;30;20084;-66
2023/01/05 08:28:29;;;;;;;6.35;3.85;;;;;;;-145.63;100.00;61273.97;4771257;30;20046;-65
2023/01/05 08:31:07;;;;;;;8.43;4.40;;;;;;;-145.63;100.00;61273.97;4786685;29;20059;-66
2023/01/05 08:33:33;;;;;;;4.95;3.50;;;;;;;-145.63;100.00;61273.97;4786627;29;20068;-67
2023/01/05 08:35:59;;;;;;;5.90;4.18;;;;;;;-145.63;100.00;61273.97;4789015;30;20042;-66
2023/01/05 08:38:25;;;;;;;5.18;3.70;;;;;;;-145.63;100.00;61273.97;4788044;29;20048;-67
2023/01/05 08:40:51;;;;;;;10.15;3.92;;;;;;;-145.63;100.00;61273.97;4788674;30;20100;-66
2023/01/05 08:43:16;;;;;;;6.13;3.70;;;;;;;-145.63;100.00;61273.97;4788834;30;20241;-66
2023/01/05 08:45:48;;;;;;;4.25;3.70;;;;;;;-145.63;100.00;61273.97;4789696;29;20350;-66
2023/01/05 08:48:14;;;;;;;8.00;4.38;;;;;;;-145.63;100.00;61273.97;4789249;29;20035;-67
2023/01/05 08:50:39;;;;;;;4.60;3.53;;;;;;;-145.63;100.00;61273.97;4790441;29;20043;-67
2023/01/05 08:53:05;;;;;;;9.45;4.53;;;;;;;-145.63;100.00;61273.97;4790171;30;20028;-67
2023/01/05 08:55:30;;;;;;;5.65;3.78;;;;;;;-145.63;100.00;61273.97;4789117;30;20039;-66
2023/01/05 08:57:56;;;;;;;5.72;3.88;;;;;;;-145.63;100.00;61273.97;4781207;30;20032;-67
2023/01/05 09:00:22;;;;;;;6.80;4.45;;;;;;;-145.63;100.00;61273.97;4780417;30;20076;-66
2023/01/05 09:02:48;;;;;;;4.53;3.80;;;;;;;-145.63;100.00;61273.97;4781091;30;20119;-66
2023/01/05 09:05:14;;;;;;;15.75;7.55;;;;;;;-145.63;100.00;61273.97;4781212;30;20027;-66
2023/01/05 09:07:40;;;;;;;3.92;3.15;;;;;;;-145.63;100.00;61273.97;4780710;30;20027;-66
2023/01/05 09:10:07;;;;;;;6.03;3.45;;;;;;;-145.63;100.00;61273.97;4780115;30;20031;-66
2023/01/05 09:12:37;;;;;;;5.40;3.47;;;;;;;-145.63;100.00;61273.97;4776997;30;20027;-67
2023/01/05 09:15:04;;;;;;;6.18;3.35;;;;;;;-145.63;100.00;61273.97;4777627;30;20051;-67
2023/01/05 09:17:31;;;;;;;6.10;3.63;;;;;;;-145.63;100.00;61273.97;4791895;30;20383;-67
2023/01/05 09:19:56;;;;;;;5.97;2.97;;;;;;;-145.63;100.00;61273.97;4778515;30;20096;-67
2023/01/05 09:22:22;;;;;;;4.68;3.40;;;;;;;-145.63;100.00;61273.97;4778635;30;20340;-66
2023/01/05 09:24:47;;;;;;;7.20;3.38;;;;;;;-145.63;100.00;61273.97;4778117;30;20044;-66
2023/01/05 09:27:13;;;;;;;5.43;3.97;;;;;;;-145.63;100.00;61273.97;4778384;30;20193;-66
2023/01/05 09:29:39;;;;;;;5.22;4.10;;;;;;;-145.63;100.00;61273.97;4777057;30;20233;-69
2023/01/05 09:32:05;;;;;;;7.18;4.13;;;;;;;-145.63;100.00;61273.97;4779407;30;20044;-66
2023/01/05 09:34:31;;;;;;;5.05;3.60;;;;;;;-145.63;100.00;61273.97;4779304;30;20043;-67
2023/01/05 09:36:57;;;;;;;4.82;3.50;;;;;;;-145.63;100.00;61273.97;4779369;30;20051;-66
2023/01/05 09:39:23;;;;;;;6.15;3.85;;;;;;;-145.63;100.00;61273.97;4793418;30;20047;-66
2023/01/05 09:41:52;;;;;;;4.82;3.20;;;;;;;-145.63;100.00;61273.97;4779433;30;20039;-68
2023/01/05 09:44:47;;;;;;;5.03;3.30;;;;;;;-145.63;100.00;61273.97;4777104;30;20089;-67
2023/01/05 09:47:25;;;;;;;4.78;2.90;;;;;;;-145.63;100.00;61273.97;4778426;30;20060;-67
2023/01/05 09:49:52;;;;;;;4.63;3.13;;;;;;;-145.63;100.00;61273.97;4772584;30;20047;-68
2023/01/05 09:52:21;;;;;;;4.45;2.90;;;;;;;-145.63;100.00;61273.97;4778743;30;20036;-67
2023/01/05 09:54:47;;;;;;;6.18;3.58;;;;;;;-145.63;100.00;61273.97;4777754;30;20046;-66
2023/01/05 09:57:22;;;;;;;4.65;3.30;;;;;;;-145.63;100.00;61273.97;4777911;30;20027;-67
2023/01/05 09:59:53;;;;;;;7.03;3.38;;;;;;;-145.63;100.00;61273.97;4777809;30;20035;-68
2023/01/05 10:02:29;;;;;;;4.95;3.47;;;;;;;-145.63;100.00;61273.97;4777834;30;20031;-67
2023/01/05 10:04:57;;;;;;;4.65;3.40;;;;;;;-145.63;100.00;61273.97;4786164;30;20032;-66
2023/01/05 10:08:01;;;;;;;6.57;3.78;;;;;;;-145.63;100.00;61273.97;4771181;30;20036;-66
2023/01/05 10:10:36;;;;;;;5.43;3.38;;;;;;;-145.63;100.00;61273.97;4777136;30;20319;-66
2023/01/05 10:13:05;;;;;;;5.85;3.40;;;;;;;-145.63;100.00;61273.97;4779194;30;20042;-65
2023/01/05 10:15:52;;;;;;;6.30;3.80;;;;;;;-145.63;100.00;61273.97;4779351;30;20139;-67
2023/01/05 10:18:25;;;;;;;3.97;3.10;;;;;;;-145.63;100.00;61273.97;4778865;30;20347;-67
2023/01/05 10:21:09;;;;;;;6.70;3.70;;;;;;;-145.63;100.00;61273.97;4779231;30;20043;-66
2023/01/05 10:24:06;;;;;;;7.25;3.70;;;;;;;-145.63;100.00;61273.97;4778365;30;20039;-67
2023/01/05 10:27:25;;;;;;;5.05;3.80;;;;;;;-145.63;100.00;61273.97;4778761;30;20383;-67
2023/01/05 10:30:04;;;;;;;7.63;3.88;;;;;;;-145.63;100.00;61273.97;4758277;30;20329;-67
2023/01/05 10:32:58;;;;;;;5.18;3.40;;;;;;;-145.63;100.00;61273.97;4759612;30;20344;-67
2023/01/05 10:35:56;;;;;;;6.55;3.80;;;;;;;-145.63;100.00;61273.97;4759499;30;20059;-67
2023/01/05 10:38:54;;;;;;;6.15;3.25;;;;;;;-145.63;100.00;61273.97;4759652;30;20231;-67
2023/01/05 10:41:19;;;;;;;6.68;3.50;;;;;;;-145.63;100.00;61273.97;4759613;30;20048;-67
2023/01/05 10:44:06;;;;;;;5.25;3.75;;;;;;;-145.63;100.00;61273.97;4759546;30;20107;-66
2023/01/05 10:46:31;;;;;;;6.22;3.60;;;;;;;-145.63;100.00;61273.97;4759028;30;20032;-67
2023/01/05 10:48:59;;;;;;;6.05;3.45;;;;;;;-145.63;100.00;61273.97;4759017;30;20046;-67
2023/01/05 10:51:25;;;;;;;6.43;2.90;;;;;;;-145.63;100.00;61273.97;4759043;30;20043;-66
2023/01/05 10:53:52;;;;;;;6.53;3.33;;;;;;;-145.63;100.00;61273.97;4760222;30;20071;-67
2023/01/05 10:56:28;;;;;;;5.78;3.47;;;;;;;-145.63;100.00;61273.97;4758962;30;20044;-66
2023/01/05 10:59:11;;;;;;;4.65;3.20;;;;;;;-145.63;100.00;61273.97;4764327;30;20047;-66
2023/01/05 11:01:41;;;;;;;6.78;3.25;;;;;;;-145.63;100.00;61273.97;4770167;30;20105;-66
2023/01/05 11:04:14;;;;;;;6.15;3.40;;;;;;;-145.63;100.00;61273.97;4777886;30;20042;-66
2023/01/05 11:06:40;;;;;;;5.78;3.38;;;;;;;-145.63;100.00;61273.97;4778127;30;20100;-65
2023/01/05 11:09:14;;;;;;;7.25;3.75;;;;;;;-145.63;100.00;61273.97;4779873;30;20039;-65
2023/01/05 11:11:40;;;;;;;8.07;3.33;;;;;;;-145.63;100.00;61273.97;4779300;30;20055;-65
2023/01/05 11:14:15;;;;;;;6.07;3.60;;;;;;;-145.63;100.00;61273.97;4778176;30;20027;-64
2023/01/05 11:16:50;;;;;;;5.68;3.83;;;;;;;-145.63;100.00;61273.97;4779449;30;20095;-66
2023/01/05 11:19:20;;;;;;;6.60;3.60;;;;;;;-145.63;100.00;61273.97;4793116;30;20032;-65
2023/01/05 11:21:45;;;;;;;5.35;3.03;;;;;;;-145.63;100.00;61273.97;4779250;30;20032;-65
2023/01/05 11:24:23;;;;;;;6.13;3.53;;;;;;;-145.63;100.00;61273.97;4790246;29;20034;-66
2023/01/05 11:26:51;;;;;;;5.60;3.90;;;;;;;-145.63;100.00;61273.97;4778787;30;20105;-66
2023/01/05 11:29:17;;;;;;;7.28;4.25;;;;;;;-145.63;100.00;61273.97;4779581;30;20035;-67
2023/01/05 11:31:58;;;;;;;6.43;4.20;;;;;;;-145.63;100.00;61273.97;4779356;30;20046;-67
2023/01/05 11:34:42;;;;;;;5.50;3.47;;;;;;;-145.63;100.00;61273.97;4779397;30;20051;-67
2023/01/05 11:37:10;;;;;;;8.38;4.35;;;;;;;-145.63;100.00;61273.97;4779528;30;20323;-66
2023/01/05 11:39:39;;;;;;;5.93;4.03;;;;;;;-145.63;100.00;61273.97;4777003;30;20106;-66
2023/01/05 11:42:21;;;;;;;7.20;4.05;;;;;;;-145.63;100.00;61273.97;4781470;30;20039;-66
2023/01/05 11:44:50;;;;;;;9.50;4.35;;;;;;;-145.63;100.00;61273.97;4786610;30;20119;-67
2023/01/05 11:47:25;;;;;;;7.57;4.93;;;;;;;-145.63;100.00;61273.97;4783791;29;20115;-66
2023/01/05 11:50:07;;;;;;;9.80;5.13;;;;;;;-145.63;100.00;61273.97;4779116;30;20340;-66
2023/01/05 11:52:36;;;;;;;8.52;5.40;;;;;;;-145.63;100.00;61273.97;4778492;30;20108;-66